sensor_id;sensor_type;location;lat;lon;timestamp;temperature;humidity
80367;DHT22;70058;42.660;23.366;2024-03-08T00:01:56;9.60;62.50
80367;DHT22;70058;42.660;23.366;2024-03-08T00:04:22;9.70;62.60
80367;DHT22;70058;42.660;23.366;2024-03-08T00:06:47;9.60;62.60
80367;DHT22;70058;42.660;23.366;2024-03-08T00:09:13;9.50;63.20
80367;DHT22;70058;42.660;23.366;2024-03-08T00:11:39;9.40;62.90
80367;DHT22;70058;42.660;23.366;2024-03-08T00:14:05;9.40;62.80
80367;DHT22;70058;42.660;23.366;2024-03-08T00:16:32;9.50;63.10
80367;DHT22;70058;42.660;23.366;2024-03-08T00:18:59;9.70;61.50
80367;DHT22;70058;42.660;23.366;2024-03-08T00:21:25;9.20;60.90
80367;DHT22;70058;42.660;23.366;2024-03-08T00:23:52;9.40;61.90
80367;DHT22;70058;42.660;23.366;2024-03-08T00:26:20;9.40;62.70
80367;DHT22;70058;42.660;23.366;2024-03-08T00:28:48;9.10;63.40
80367;DHT22;70058;42.660;23.366;2024-03-08T00:31:14;9.20;64.30
80367;DHT22;70058;42.660;23.366;2024-03-08T00:33:42;9.30;63.70
80367;DHT22;70058;42.660;23.366;2024-03-08T00:36:08;9.30;63.80
80367;DHT22;70058;42.660;23.366;2024-03-08T00:38:33;9.30;64.20
80367;DHT22;70058;42.660;23.366;2024-03-08T00:41:00;9.50;64.00
80367;DHT22;70058;42.660;23.366;2024-03-08T00:43:25;9.40;62.70
80367;DHT22;70058;42.660;23.366;2024-03-08T00:45:51;9.20;63.70
80367;DHT22;70058;42.660;23.366;2024-03-08T00:48:18;9.00;64.30
80367;DHT22;70058;42.660;23.366;2024-03-08T00:50:43;8.90;65.40
80367;DHT22;70058;42.660;23.366;2024-03-08T00:53:12;9.10;64.80
80367;DHT22;70058;42.660;23.366;2024-03-08T00:55:38;9.10;64.20
80367;DHT22;70058;42.660;23.366;2024-03-08T00:58:07;9.00;64.60
80367;DHT22;70058;42.660;23.366;2024-03-08T01:00:34;9.00;64.00
80367;DHT22;70058;42.660;23.366;2024-03-08T01:03:00;9.00;64.00
80367;DHT22;70058;42.660;23.366;2024-03-08T01:05:26;9.00;64.30
80367;DHT22;70058;42.660;23.366;2024-03-08T01:07:51;9.00;64.70
80367;DHT22;70058;42.660;23.366;2024-03-08T01:10:17;8.90;64.90
80367;DHT22;70058;42.660;23.366;2024-03-08T01:12:43;8.80;65.00
80367;DHT22;70058;42.660;23.366;2024-03-08T01:15:10;8.60;65.50
80367;DHT22;70058;42.660;23.366;2024-03-08T01:17:38;8.60;65.90
80367;DHT22;70058;42.660;23.366;2024-03-08T01:20:05;8.60;66.10
80367;DHT22;70058;42.660;23.366;2024-03-08T01:22:31;8.40;65.80
80367;DHT22;70058;42.660;23.366;2024-03-08T01:24:57;8.40;66.40
80367;DHT22;70058;42.660;23.366;2024-03-08T01:27:23;8.40;66.10
80367;DHT22;70058;42.660;23.366;2024-03-08T01:29:50;8.20;67.60
80367;DHT22;70058;42.660;23.366;2024-03-08T01:32:16;8.20;67.30
80367;DHT22;70058;42.660;23.366;2024-03-08T01:34:41;8.30;67.40
80367;DHT22;70058;42.660;23.366;2024-03-08T01:37:08;8.40;67.30
80367;DHT22;70058;42.660;23.366;2024-03-08T01:39:33;8.60;67.90
80367;DHT22;70058;42.660;23.366;2024-03-08T01:41:59;8.60;67.00
80367;DHT22;70058;42.660;23.366;2024-03-08T01:44:26;8.70;66.20
80367;DHT22;70058;42.660;23.366;2024-03-08T01:46:53;8.90;65.30
80367;DHT22;70058;42.660;23.366;2024-03-08T01:49:20;9.10;64.80
80367;DHT22;70058;42.660;23.366;2024-03-08T01:51:48;9.20;64.50
80367;DHT22;70058;42.660;23.366;2024-03-08T01:54:15;9.20;64.60
80367;DHT22;70058;42.660;23.366;2024-03-08T01:56:42;9.20;64.20
80367;DHT22;70058;42.660;23.366;2024-03-08T01:59:08;9.20;63.10
80367;DHT22;70058;42.660;23.366;2024-03-08T02:01:35;9.30;63.90
80367;DHT22;70058;42.660;23.366;2024-03-08T02:04:01;9.30;63.10
80367;DHT22;70058;42.660;23.366;2024-03-08T02:06:26;9.30;63.00
80367;DHT22;70058;42.660;23.366;2024-03-08T02:08:52;9.40;62.80
80367;DHT22;70058;42.660;23.366;2024-03-08T02:11:19;9.50;62.70
80367;DHT22;70058;42.660;23.366;2024-03-08T02:13:46;9.60;61.50
80367;DHT22;70058;42.660;23.366;2024-03-08T02:16:12;9.40;61.20
80367;DHT22;70058;42.660;23.366;2024-03-08T02:18:37;9.50;61.90
80367;DHT22;70058;42.660;23.366;2024-03-08T02:21:05;9.30;62.20
80367;DHT22;70058;42.660;23.366;2024-03-08T02:23:37;9.40;61.70
80367;DHT22;70058;42.660;23.366;2024-03-08T02:26:03;9.50;61.80
80367;DHT22;70058;42.660;23.366;2024-03-08T02:28:30;9.30;59.80
80367;DHT22;70058;42.660;23.366;2024-03-08T02:30:56;9.10;59.70
80367;DHT22;70058;42.660;23.366;2024-03-08T02:33:22;8.90;59.90
80367;DHT22;70058;42.660;23.366;2024-03-08T02:35:49;9.00;58.90
80367;DHT22;70058;42.660;23.366;2024-03-08T02:38:17;9.10;59.20
80367;DHT22;70058;42.660;23.366;2024-03-08T02:40:44;9.00;59.60
80367;DHT22;70058;42.660;23.366;2024-03-08T02:43:11;9.00;58.90
80367;DHT22;70058;42.660;23.366;2024-03-08T02:45:37;9.00;59.20
80367;DHT22;70058;42.660;23.366;2024-03-08T02:48:04;9.00;58.90
80367;DHT22;70058;42.660;23.366;2024-03-08T02:50:32;9.00;59.30
80367;DHT22;70058;42.660;23.366;2024-03-08T02:52:57;9.10;58.70
80367;DHT22;70058;42.660;23.366;2024-03-08T02:55:23;9.10;58.50
80367;DHT22;70058;42.660;23.366;2024-03-08T02:57:51;9.10;59.10
80367;DHT22;70058;42.660;23.366;2024-03-08T03:00:18;9.20;59.00
80367;DHT22;70058;42.660;23.366;2024-03-08T03:02:45;9.20;58.60
80367;DHT22;70058;42.660;23.366;2024-03-08T03:05:11;9.30;57.60
80367;DHT22;70058;42.660;23.366;2024-03-08T03:07:37;9.40;57.20
80367;DHT22;70058;42.660;23.366;2024-03-08T03:10:04;9.30;57.10
80367;DHT22;70058;42.660;23.366;2024-03-08T03:12:31;9.20;57.90
80367;DHT22;70058;42.660;23.366;2024-03-08T03:14:58;9.10;57.80
80367;DHT22;70058;42.660;23.366;2024-03-08T03:17:23;9.10;57.40
80367;DHT22;70058;42.660;23.366;2024-03-08T03:19:53;9.20;56.80
80367;DHT22;70058;42.660;23.366;2024-03-08T03:22:19;9.10;56.20
80367;DHT22;70058;42.660;23.366;2024-03-08T03:24:45;9.10;57.40
80367;DHT22;70058;42.660;23.366;2024-03-08T03:27:14;8.90;56.70
80367;DHT22;70058;42.660;23.366;2024-03-08T03:29:41;8.80;56.80
80367;DHT22;70058;42.660;23.366;2024-03-08T03:32:11;8.80;56.80
80367;DHT22;70058;42.660;23.366;2024-03-08T03:34:37;8.40;57.30
80367;DHT22;70058;42.660;23.366;2024-03-08T03:37:04;8.30;58.10
80367;DHT22;70058;42.660;23.366;2024-03-08T03:39:30;8.30;58.50
80367;DHT22;70058;42.660;23.366;2024-03-08T03:42:00;8.10;58.40
80367;DHT22;70058;42.660;23.366;2024-03-08T03:44:28;8.40;58.20
80367;DHT22;70058;42.660;23.366;2024-03-08T03:46:53;8.40;57.80
80367;DHT22;70058;42.660;23.366;2024-03-08T03:49:19;8.50;58.60
80367;DHT22;70058;42.660;23.366;2024-03-08T03:51:45;8.60;57.80
80367;DHT22;70058;42.660;23.366;2024-03-08T03:54:12;8.60;57.20
80367;DHT22;70058;42.660;23.366;2024-03-08T03:56:38;8.60;57.40
80367;DHT22;70058;42.660;23.366;2024-03-08T03:59:08;8.80;57.60
80367;DHT22;70058;42.660;23.366;2024-03-08T04:01:34;8.80;56.90
80367;DHT22;70058;42.660;23.366;2024-03-08T04:04:00;8.80;57.60
80367;DHT22;70058;42.660;23.366;2024-03-08T04:06:25;8.90;57.20
80367;DHT22;70058;42.660;23.366;2024-03-08T04:08:51;8.80;57.60
80367;DHT22;70058;42.660;23.366;2024-03-08T04:11:17;8.10;57.80
80367;DHT22;70058;42.660;23.366;2024-03-08T04:13:43;8.00;59.00
80367;DHT22;70058;42.660;23.366;2024-03-08T04:16:09;8.20;59.10
80367;DHT22;70058;42.660;23.366;2024-03-08T04:18:37;8.40;58.90
80367;DHT22;70058;42.660;23.366;2024-03-08T04:21:04;8.40;59.00
80367;DHT22;70058;42.660;23.366;2024-03-08T04:23:33;8.50;58.50
80367;DHT22;70058;42.660;23.366;2024-03-08T04:26:01;8.50;58.30
80367;DHT22;70058;42.660;23.366;2024-03-08T04:28:27;8.50;58.60
80367;DHT22;70058;42.660;23.366;2024-03-08T04:30:53;8.60;58.80
80367;DHT22;70058;42.660;23.366;2024-03-08T04:33:18;8.60;58.40
80367;DHT22;70058;42.660;23.366;2024-03-08T04:35:45;8.40;58.30
80367;DHT22;70058;42.660;23.366;2024-03-08T04:38:11;8.30;58.90
80367;DHT22;70058;42.660;23.366;2024-03-08T04:40:37;8.30;59.20
80367;DHT22;70058;42.660;23.366;2024-03-08T04:43:02;8.30;58.50
80367;DHT22;70058;42.660;23.366;2024-03-08T04:45:28;8.60;59.10
80367;DHT22;70058;42.660;23.366;2024-03-08T04:47:54;8.60;58.60
80367;DHT22;70058;42.660;23.366;2024-03-08T04:50:19;8.50;59.00
80367;DHT22;70058;42.660;23.366;2024-03-08T04:52:45;8.50;59.00
80367;DHT22;70058;42.660;23.366;2024-03-08T04:55:11;8.50;59.00
80367;DHT22;70058;42.660;23.366;2024-03-08T04:57:37;8.50;59.30
80367;DHT22;70058;42.660;23.366;2024-03-08T05:00:03;8.70;59.40
80367;DHT22;70058;42.660;23.366;2024-03-08T05:02:36;8.70;58.60
80367;DHT22;70058;42.660;23.366;2024-03-08T05:05:03;8.60;58.90
80367;DHT22;70058;42.660;23.366;2024-03-08T05:07:31;8.70;58.90
80367;DHT22;70058;42.660;23.366;2024-03-08T05:09:58;8.50;58.50
80367;DHT22;70058;42.660;23.366;2024-03-08T05:12:24;8.40;59.50
80367;DHT22;70058;42.660;23.366;2024-03-08T05:14:50;8.40;59.60
80367;DHT22;70058;42.660;23.366;2024-03-08T05:17:16;8.10;60.20
80367;DHT22;70058;42.660;23.366;2024-03-08T05:19:44;8.20;60.30
80367;DHT22;70058;42.660;23.366;2024-03-08T05:22:10;8.10;60.70
80367;DHT22;70058;42.660;23.366;2024-03-08T05:24:36;8.20;60.40
80367;DHT22;70058;42.660;23.366;2024-03-08T05:27:14;8.50;60.30
80367;DHT22;70058;42.660;23.366;2024-03-08T05:29:40;8.70;59.90
80367;DHT22;70058;42.660;23.366;2024-03-08T05:32:06;8.30;58.80
80367;DHT22;70058;42.660;23.366;2024-03-08T05:34:33;8.10;59.30
80367;DHT22;70058;42.660;23.366;2024-03-08T05:36:58;8.20;59.70
80367;DHT22;70058;42.660;23.366;2024-03-08T05:39:25;8.10;59.10
80367;DHT22;70058;42.660;23.366;2024-03-08T05:41:51;8.30;59.20
80367;DHT22;70058;42.660;23.366;2024-03-08T05:44:17;8.40;59.30
80367;DHT22;70058;42.660;23.366;2024-03-08T05:46:42;8.00;60.60
80367;DHT22;70058;42.660;23.366;2024-03-08T05:49:08;7.90;60.80
80367;DHT22;70058;42.660;23.366;2024-03-08T05:51:36;8.10;60.60
80367;DHT22;70058;42.660;23.366;2024-03-08T05:54:04;8.20;60.10
80367;DHT22;70058;42.660;23.366;2024-03-08T05:56:34;8.30;59.60
80367;DHT22;70058;42.660;23.366;2024-03-08T05:59:00;8.50;59.40
80367;DHT22;70058;42.660;23.366;2024-03-08T06:01:26;8.70;58.40
80367;DHT22;70058;42.660;23.366;2024-03-08T06:03:55;8.70;57.90
80367;DHT22;70058;42.660;23.366;2024-03-08T06:06:22;8.80;58.50
80367;DHT22;70058;42.660;23.366;2024-03-08T06:08:51;8.90;58.80
80367;DHT22;70058;42.660;23.366;2024-03-08T06:11:19;8.90;58.00
80367;DHT22;70058;42.660;23.366;2024-03-08T06:13:49;8.90;57.00
80367;DHT22;70058;42.660;23.366;2024-03-08T06:16:15;8.90;57.30
80367;DHT22;70058;42.660;23.366;2024-03-08T06:18:41;8.70;57.50
80367;DHT22;70058;42.660;23.366;2024-03-08T06:21:17;8.70;57.30
80367;DHT22;70058;42.660;23.366;2024-03-08T06:23:43;8.70;58.20
80367;DHT22;70058;42.660;23.366;2024-03-08T06:26:09;8.20;58.50
80367;DHT22;70058;42.660;23.366;2024-03-08T06:28:35;8.40;58.80
80367;DHT22;70058;42.660;23.366;2024-03-08T06:31:02;8.60;57.20
80367;DHT22;70058;42.660;23.366;2024-03-08T06:33:28;8.70;57.10
80367;DHT22;70058;42.660;23.366;2024-03-08T06:35:54;8.60;57.40
80367;DHT22;70058;42.660;23.366;2024-03-08T06:38:25;8.90;57.40
80367;DHT22;70058;42.660;23.366;2024-03-08T06:40:52;8.30;57.90
80367;DHT22;70058;42.660;23.366;2024-03-08T06:43:18;8.50;57.60
80367;DHT22;70058;42.660;23.366;2024-03-08T06:45:47;8.80;57.20
80367;DHT22;70058;42.660;23.366;2024-03-08T06:48:19;9.10;57.10
80367;DHT22;70058;42.660;23.366;2024-03-08T06:50:46;9.30;56.60
80367;DHT22;70058;42.660;23.366;2024-03-08T06:53:13;9.30;56.70
80367;DHT22;70058;42.660;23.366;2024-03-08T06:55:39;9.50;56.20
80367;DHT22;70058;42.660;23.366;2024-03-08T06:58:06;9.70;55.20
80367;DHT22;70058;42.660;23.366;2024-03-08T07:00:33;10.00;54.60
80367;DHT22;70058;42.660;23.366;2024-03-08T07:02:59;10.10;54.30
80367;DHT22;70058;42.660;23.366;2024-03-08T07:05:28;10.20;53.70
80367;DHT22;70058;42.660;23.366;2024-03-08T07:07:54;10.40;53.30
80367;DHT22;70058;42.660;23.366;2024-03-08T07:10:29;10.60;52.90
80367;DHT22;70058;42.660;23.366;2024-03-08T07:12:55;10.60;51.80
80367;DHT22;70058;42.660;23.366;2024-03-08T07:15:24;10.30;51.60
80367;DHT22;70058;42.660;23.366;2024-03-08T07:17:53;10.50;52.60
80367;DHT22;70058;42.660;23.366;2024-03-08T07:20:20;10.70;53.20
80367;DHT22;70058;42.660;23.366;2024-03-08T07:22:47;10.80;52.60
80367;DHT22;70058;42.660;23.366;2024-03-08T07:25:13;10.90;51.40
80367;DHT22;70058;42.660;23.366;2024-03-08T07:27:53;10.80;51.10
80367;DHT22;70058;42.660;23.366;2024-03-08T07:30:20;10.30;52.90
80367;DHT22;70058;42.660;23.366;2024-03-08T07:33:09;10.50;52.90
80367;DHT22;70058;42.660;23.366;2024-03-08T07:35:38;10.60;52.80
80367;DHT22;70058;42.660;23.366;2024-03-08T07:38:06;10.70;52.70
80367;DHT22;70058;42.660;23.366;2024-03-08T07:40:39;10.10;53.30
80367;DHT22;70058;42.660;23.366;2024-03-08T07:43:09;10.20;54.30
80367;DHT22;70058;42.660;23.366;2024-03-08T07:45:39;10.30;53.80
80367;DHT22;70058;42.660;23.366;2024-03-08T07:48:05;10.30;52.70
80367;DHT22;70058;42.660;23.366;2024-03-08T07:50:38;10.60;53.00
80367;DHT22;70058;42.660;23.366;2024-03-08T07:53:05;10.60;52.20
80367;DHT22;70058;42.660;23.366;2024-03-08T07:55:37;10.80;52.50
80367;DHT22;70058;42.660;23.366;2024-03-08T07:58:05;10.90;52.10
80367;DHT22;70058;42.660;23.366;2024-03-08T08:00:31;11.20;52.10
80367;DHT22;70058;42.660;23.366;2024-03-08T08:02:58;11.30;51.40
80367;DHT22;70058;42.660;23.366;2024-03-08T08:05:24;11.50;51.10
80367;DHT22;70058;42.660;23.366;2024-03-08T08:07:50;11.80;50.80
80367;DHT22;70058;42.660;23.366;2024-03-08T08:10:17;12.10;50.60
80367;DHT22;70058;42.660;23.366;2024-03-08T08:12:50;12.30;49.00
80367;DHT22;70058;42.660;23.366;2024-03-08T08:15:17;12.50;48.70
80367;DHT22;70058;42.660;23.366;2024-03-08T08:17:46;12.80;48.00
80367;DHT22;70058;42.660;23.366;2024-03-08T08:20:13;12.40;46.10
80367;DHT22;70058;42.660;23.366;2024-03-08T08:22:42;12.10;47.20
80367;DHT22;70058;42.660;23.366;2024-03-08T08:25:09;13.20;46.90
80367;DHT22;70058;42.660;23.366;2024-03-08T08:27:35;14.10;44.20
80367;DHT22;70058;42.660;23.366;2024-03-08T08:30:05;15.00;42.40
80367;DHT22;70058;42.660;23.366;2024-03-08T08:32:34;15.50;40.60
80367;DHT22;70058;42.660;23.366;2024-03-08T08:35:00;15.90;39.20
80367;DHT22;70058;42.660;23.366;2024-03-08T08:37:26;16.00;38.90
80367;DHT22;70058;42.660;23.366;2024-03-08T08:39:52;16.40;38.10
80367;DHT22;70058;42.660;23.366;2024-03-08T08:42:18;16.70;37.20
80367;DHT22;70058;42.660;23.366;2024-03-08T08:44:43;16.80;36.70
80367;DHT22;70058;42.660;23.366;2024-03-08T08:47:09;17.80;36.20
80367;DHT22;70058;42.660;23.366;2024-03-08T08:49:35;18.30;34.40
80367;DHT22;70058;42.660;23.366;2024-03-08T08:52:00;18.50;33.80
80367;DHT22;70058;42.660;23.366;2024-03-08T08:54:27;18.30;33.80
80367;DHT22;70058;42.660;23.366;2024-03-08T08:56:56;18.10;33.70
80367;DHT22;70058;42.660;23.366;2024-03-08T08:59:24;17.30;34.70
80367;DHT22;70058;42.660;23.366;2024-03-08T09:01:50;16.90;35.50
80367;DHT22;70058;42.660;23.366;2024-03-08T09:04:17;16.50;36.40
80367;DHT22;70058;42.660;23.366;2024-03-08T09:06:43;17.90;35.30
80367;DHT22;70058;42.660;23.366;2024-03-08T09:09:10;21.00;30.40
80367;DHT22;70058;42.660;23.366;2024-03-08T09:11:37;23.20;27.20
80367;DHT22;70058;42.660;23.366;2024-03-08T09:14:07;24.30;26.60
80367;DHT22;70058;42.660;23.366;2024-03-08T09:16:33;26.30;24.90
80367;DHT22;70058;42.660;23.366;2024-03-08T09:18:58;27.50;23.70
80367;DHT22;70058;42.660;23.366;2024-03-08T09:21:24;27.40;23.40
80367;DHT22;70058;42.660;23.366;2024-03-08T09:23:50;26.70;23.40
80367;DHT22;70058;42.660;23.366;2024-03-08T09:26:15;26.00;23.30
80367;DHT22;70058;42.660;23.366;2024-03-08T09:28:42;25.30;23.90
80367;DHT22;70058;42.660;23.366;2024-03-08T09:31:07;26.70;23.70
80367;DHT22;70058;42.660;23.366;2024-03-08T09:33:33;26.60;22.40
80367;DHT22;70058;42.660;23.366;2024-03-08T09:35:59;25.40;23.90
80367;DHT22;70058;42.660;23.366;2024-03-08T09:38:24;23.70;25.00
80367;DHT22;70058;42.660;23.366;2024-03-08T09:40:51;23.30;26.50
80367;DHT22;70058;42.660;23.366;2024-03-08T09:43:35;23.00;25.70
80367;DHT22;70058;42.660;23.366;2024-03-08T09:46:04;19.50;28.10
80367;DHT22;70058;42.660;23.366;2024-03-08T09:48:32;18.40;31.90
80367;DHT22;70058;42.660;23.366;2024-03-08T09:50:58;18.10;31.60
80367;DHT22;70058;42.660;23.366;2024-03-08T09:53:26;17.80;31.30
80367;DHT22;70058;42.660;23.366;2024-03-08T09:55:52;18.10;32.80
80367;DHT22;70058;42.660;23.366;2024-03-08T10:00:46;18.90;31.60
80367;DHT22;70058;42.660;23.366;2024-03-08T10:03:11;18.80;32.00
80367;DHT22;70058;42.660;23.366;2024-03-08T10:05:40;18.60;32.10
80367;DHT22;70058;42.660;23.366;2024-03-08T10:08:07;18.00;32.80
80367;DHT22;70058;42.660;23.366;2024-03-08T10:10:39;17.30;33.80
80367;DHT22;70058;42.660;23.366;2024-03-08T10:13:15;16.90;34.50
80367;DHT22;70058;42.660;23.366;2024-03-08T10:15:42;16.40;35.20
80367;DHT22;70058;42.660;23.366;2024-03-08T10:18:09;16.50;35.00
80367;DHT22;70058;42.660;23.366;2024-03-08T10:20:35;16.70;35.20
80367;DHT22;70058;42.660;23.366;2024-03-08T10:23:02;16.90;34.70
80367;DHT22;70058;42.660;23.366;2024-03-08T10:25:32;16.30;33.80
80367;DHT22;70058;42.660;23.366;2024-03-08T10:27:58;15.20;36.30
80367;DHT22;70058;42.660;23.366;2024-03-08T10:30:24;15.50;35.90
80367;DHT22;70058;42.660;23.366;2024-03-08T10:32:50;15.80;36.50
80367;DHT22;70058;42.660;23.366;2024-03-08T10:35:17;16.20;35.60
80367;DHT22;70058;42.660;23.366;2024-03-08T10:37:47;16.50;35.50
80367;DHT22;70058;42.660;23.366;2024-03-08T10:40:22;16.40;34.90
80367;DHT22;70058;42.660;23.366;2024-03-08T10:45:34;15.70;35.00
80367;DHT22;70058;42.660;23.366;2024-03-08T10:48:10;15.80;35.70
80367;DHT22;70058;42.660;23.366;2024-03-08T10:50:42;15.50;34.60
80367;DHT22;70058;42.660;23.366;2024-03-08T10:53:14;15.20;35.90
80367;DHT22;70058;42.660;23.366;2024-03-08T10:55:40;15.80;36.20
80367;DHT22;70058;42.660;23.366;2024-03-08T10:58:08;16.10;35.60
80367;DHT22;70058;42.660;23.366;2024-03-08T11:00:36;16.20;34.60
80367;DHT22;70058;42.660;23.366;2024-03-08T11:03:03;16.30;35.10
80367;DHT22;70058;42.660;23.366;2024-03-08T11:05:41;16.50;34.70
80367;DHT22;70058;42.660;23.366;2024-03-08T11:08:18;16.40;35.10
80367;DHT22;70058;42.660;23.366;2024-03-08T11:10:51;15.70;36.00
80367;DHT22;70058;42.660;23.366;2024-03-08T11:13:35;15.50;36.80
80367;DHT22;70058;42.660;23.366;2024-03-08T11:16:02;15.50;36.70
80367;DHT22;70058;42.660;23.366;2024-03-08T11:18:33;15.30;36.90
80367;DHT22;70058;42.660;23.366;2024-03-08T11:21:07;15.10;36.80
80367;DHT22;70058;42.660;23.366;2024-03-08T11:23:38;15.10;37.70
80367;DHT22;70058;42.660;23.366;2024-03-08T11:26:18;14.60;37.10
80367;DHT22;70058;42.660;23.366;2024-03-08T11:28:45;14.70;38.50
80367;DHT22;70058;42.660;23.366;2024-03-08T11:33:40;14.60;39.60
80367;DHT22;70058;42.660;23.366;2024-03-08T11:36:13;14.60;38.30
80367;DHT22;70058;42.660;23.366;2024-03-08T11:38:48;13.70;39.30
80367;DHT22;70058;42.660;23.366;2024-03-08T11:41:22;13.40;39.60
80367;DHT22;70058;42.660;23.366;2024-03-08T11:43:49;12.80;42.70
80367;DHT22;70058;42.660;23.366;2024-03-08T11:46:16;13.30;41.80
80367;DHT22;70058;42.660;23.366;2024-03-08T11:48:43;13.80;40.50
80367;DHT22;70058;42.660;23.366;2024-03-08T11:51:11;14.00;38.90
80367;DHT22;70058;42.660;23.366;2024-03-08T11:53:38;14.00;39.00
80367;DHT22;70058;42.660;23.366;2024-03-08T11:56:11;13.80;39.50
80367;DHT22;70058;42.660;23.366;2024-03-08T11:58:38;14.00;39.00
80367;DHT22;70058;42.660;23.366;2024-03-08T12:01:10;13.70;39.00
80367;DHT22;70058;42.660;23.366;2024-03-08T12:03:40;13.50;40.30
80367;DHT22;70058;42.660;23.366;2024-03-08T12:06:08;13.20;40.60
80367;DHT22;70058;42.660;23.366;2024-03-08T12:08:35;13.00;40.50
80367;DHT22;70058;42.660;23.366;2024-03-08T12:11:01;12.90;41.30
80367;DHT22;70058;42.660;23.366;2024-03-08T12:13:31;13.30;41.20
80367;DHT22;70058;42.660;23.366;2024-03-08T12:16:03;13.30;41.70
80367;DHT22;70058;42.660;23.366;2024-03-08T12:18:33;13.50;40.40
80367;DHT22;70058;42.660;23.366;2024-03-08T12:21:10;13.80;39.80
80367;DHT22;70058;42.660;23.366;2024-03-08T12:23:36;14.00;39.00
80367;DHT22;70058;42.660;23.366;2024-03-08T12:26:38;14.10;39.50
80367;DHT22;70058;42.660;23.366;2024-03-08T12:29:21;13.80;40.30
80367;DHT22;70058;42.660;23.366;2024-03-08T12:31:54;13.50;40.00
80367;DHT22;70058;42.660;23.366;2024-03-08T12:34:20;13.40;41.00
80367;DHT22;70058;42.660;23.366;2024-03-08T12:36:47;13.40;41.00
80367;DHT22;70058;42.660;23.366;2024-03-08T12:39:17;13.40;41.80
80367;DHT22;70058;42.660;23.366;2024-03-08T12:41:44;13.20;41.60
80367;DHT22;70058;42.660;23.366;2024-03-08T12:44:09;12.60;43.80
80367;DHT22;70058;42.660;23.366;2024-03-08T12:46:37;12.40;43.50
80367;DHT22;70058;42.660;23.366;2024-03-08T12:49:08;12.50;42.90
80367;DHT22;70058;42.660;23.366;2024-03-08T12:51:38;12.20;43.50
80367;DHT22;70058;42.660;23.366;2024-03-08T12:54:05;12.20;43.60
80367;DHT22;70058;42.660;23.366;2024-03-08T12:56:35;12.00;43.80
80367;DHT22;70058;42.660;23.366;2024-03-08T12:59:03;12.10;43.50
80367;DHT22;70058;42.660;23.366;2024-03-08T13:01:30;11.70;45.60
80367;DHT22;70058;42.660;23.366;2024-03-08T13:03:58;12.00;44.80
80367;DHT22;70058;42.660;23.366;2024-03-08T13:06:28;12.00;43.50
80367;DHT22;70058;42.660;23.366;2024-03-08T13:08:56;12.20;43.50
80367;DHT22;70058;42.660;23.366;2024-03-08T13:11:23;12.10;43.40
80367;DHT22;70058;42.660;23.366;2024-03-08T13:13:50;12.10;43.40
80367;DHT22;70058;42.660;23.366;2024-03-08T13:16:16;12.10;43.50
80367;DHT22;70058;42.660;23.366;2024-03-08T13:18:43;12.10;43.70
80367;DHT22;70058;42.660;23.366;2024-03-08T13:21:10;11.70;44.20
80367;DHT22;70058;42.660;23.366;2024-03-08T13:23:37;11.70;44.10
80367;DHT22;70058;42.660;23.366;2024-03-08T13:26:09;12.00;43.50
80367;DHT22;70058;42.660;23.366;2024-03-08T13:28:35;11.60;43.70
80367;DHT22;70058;42.660;23.366;2024-03-08T13:31:05;11.50;44.30
80367;DHT22;70058;42.660;23.366;2024-03-08T13:33:38;11.60;44.10
80367;DHT22;70058;42.660;23.366;2024-03-08T13:36:12;11.60;44.50
80367;DHT22;70058;42.660;23.366;2024-03-08T13:38:46;11.60;44.40
80367;DHT22;70058;42.660;23.366;2024-03-08T13:41:12;11.60;43.90
80367;DHT22;70058;42.660;23.366;2024-03-08T13:43:40;11.10;44.70
80367;DHT22;70058;42.660;23.366;2024-03-08T13:46:06;11.10;45.00
80367;DHT22;70058;42.660;23.366;2024-03-08T13:48:33;11.20;45.20
80367;DHT22;70058;42.660;23.366;2024-03-08T13:50:59;11.00;45.00
80367;DHT22;70058;42.660;23.366;2024-03-08T13:53:26;10.90;44.80
80367;DHT22;70058;42.660;23.366;2024-03-08T13:55:52;10.10;48.60
80367;DHT22;70058;42.660;23.366;2024-03-08T13:58:17;10.40;47.60
80367;DHT22;70058;42.660;23.366;2024-03-08T14:00:46;10.80;46.90
80367;DHT22;70058;42.660;23.366;2024-03-08T14:03:13;10.90;46.20
80367;DHT22;70058;42.660;23.366;2024-03-08T14:05:40;11.20;45.20
80367;DHT22;70058;42.660;23.366;2024-03-08T14:08:07;10.70;44.70
80367;DHT22;70058;42.660;23.366;2024-03-08T14:10:34;10.80;46.80
80367;DHT22;70058;42.660;23.366;2024-03-08T14:13:00;10.80;46.40
80367;DHT22;70058;42.660;23.366;2024-03-08T14:15:28;10.60;46.20
80367;DHT22;70058;42.660;23.366;2024-03-08T14:17:55;10.20;46.10
80367;DHT22;70058;42.660;23.366;2024-03-08T14:20:21;10.10;46.70
80367;DHT22;70058;42.660;23.366;2024-03-08T14:22:51;10.50;46.60
80367;DHT22;70058;42.660;23.366;2024-03-08T14:25:17;10.90;44.40
80367;DHT22;70058;42.660;23.366;2024-03-08T14:27:44;11.30;43.90
80367;DHT22;70058;42.660;23.366;2024-03-08T14:30:11;11.60;44.10
80367;DHT22;70058;42.660;23.366;2024-03-08T14:32:37;11.60;43.00
80367;DHT22;70058;42.660;23.366;2024-03-08T14:35:04;11.70;44.20
80367;DHT22;70058;42.660;23.366;2024-03-08T14:37:30;12.00;43.50
80367;DHT22;70058;42.660;23.366;2024-03-08T14:39:56;12.10;43.30
80367;DHT22;70058;42.660;23.366;2024-03-08T14:42:22;12.20;43.30
80367;DHT22;70058;42.660;23.366;2024-03-08T14:44:48;12.10;43.50
80367;DHT22;70058;42.660;23.366;2024-03-08T14:47:17;12.10;43.90
80367;DHT22;70058;42.660;23.366;2024-03-08T14:49:43;12.20;43.70
80367;DHT22;70058;42.660;23.366;2024-03-08T14:52:08;12.10;43.60
80367;DHT22;70058;42.660;23.366;2024-03-08T14:54:53;11.70;44.40
80367;DHT22;70058;42.660;23.366;2024-03-08T14:57:19;11.60;45.20
80367;DHT22;70058;42.660;23.366;2024-03-08T14:59:45;11.70;44.70
80367;DHT22;70058;42.660;23.366;2024-03-08T15:02:11;11.90;44.10
80367;DHT22;70058;42.660;23.366;2024-03-08T15:04:37;12.00;44.20
80367;DHT22;70058;42.660;23.366;2024-03-08T15:07:03;11.90;44.80
80367;DHT22;70058;42.660;23.366;2024-03-08T15:09:31;12.00;44.70
80367;DHT22;70058;42.660;23.366;2024-03-08T15:12:06;11.90;44.70
80367;DHT22;70058;42.660;23.366;2024-03-08T15:14:32;11.80;44.40
80367;DHT22;70058;42.660;23.366;2024-03-08T15:16:58;11.70;44.50
80367;DHT22;70058;42.660;23.366;2024-03-08T15:19:24;11.50;45.50
80367;DHT22;70058;42.660;23.366;2024-03-08T15:21:51;11.40;46.10
80367;DHT22;70058;42.660;23.366;2024-03-08T15:24:20;11.40;46.20
80367;DHT22;70058;42.660;23.366;2024-03-08T15:26:47;11.50;44.80
80367;DHT22;70058;42.660;23.366;2024-03-08T15:29:16;11.30;45.20
80367;DHT22;70058;42.660;23.366;2024-03-08T15:31:48;11.10;46.00
80367;DHT22;70058;42.660;23.366;2024-03-08T15:34:17;11.10;45.70